sensor_id;sensor_type;location;lat;lon;timestamp;temperature;humidity
68493;HTU21D;55483;51.106;5.984;2022-07-29T14:33:53;33.15;32.73
68493;HTU21D;55483;51.106;5.984;2022-07-29T15:19:09;32.85;33.11
68493;HTU21D;55483;51.106;5.984;2022-07-29T15:21:35;32.89;32.91
68493;HTU21D;55483;51.106;5.984;2022-07-29T15:24:02;32.87;33.33
68493;HTU21D;55483;51.106;5.984;2022-07-29T15:26:28;32.78;33.14
68493;HTU21D;55483;51.106;5.984;2022-07-29T15:28:53;32.70;32.71
68493;HTU21D;55483;51.106;5.984;2022-07-29T15:31:21;32.41;32.80
68493;HTU21D;55483;51.106;5.984;2022-07-29T15:33:46;32.37;32.83
68493;HTU21D;55483;51.106;5.984;2022-07-29T15:38:48;32.49;33.49
68493;HTU21D;55483;51.106;5.984;2022-07-29T15:41:15;32.62;33.22
68493;HTU21D;55483;51.106;5.984;2022-07-29T15:43:45;32.62;33.28
68493;HTU21D;55483;51.106;5.984;2022-07-29T15:46:15;32.53;33.38
68493;HTU21D;55483;51.106;5.984;2022-07-29T15:49:01;32.43;33.22
68493;HTU21D;55483;51.106;5.984;2022-07-29T15:51:32;32.14;33.05
68493;HTU21D;55483;51.106;5.984;2022-07-29T15:54:00;31.81;33.49
68493;HTU21D;55483;51.106;5.984;2022-07-29T15:56:27;31.59;33.94
68493;HTU21D;55483;51.106;5.984;2022-07-29T15:58:53;31.54;33.72
68493;HTU21D;55483;51.106;5.984;2022-07-29T16:01:23;31.44;33.71
68493;HTU21D;55483;51.106;5.984;2022-07-29T16:04:01;31.42;33.86
68493;HTU21D;55483;51.106;5.984;2022-07-29T16:06:53;31.16;34.30
68493;HTU21D;55483;51.106;5.984;2022-07-29T16:10:05;30.97;34.73
68493;HTU21D;55483;51.106;5.984;2022-07-29T16:12:40;30.91;35.16
68493;HTU21D;55483;51.106;5.984;2022-07-29T16:15:07;30.90;35.43
68493;HTU21D;55483;51.106;5.984;2022-07-29T16:17:33;30.91;34.94
68493;HTU21D;55483;51.106;5.984;2022-07-29T16:19:59;30.89;34.79
68493;HTU21D;55483;51.106;5.984;2022-07-29T16:22:25;30.81;35.35
68493;HTU21D;55483;51.106;5.984;2022-07-29T16:24:51;30.69;35.17
68493;HTU21D;55483;51.106;5.984;2022-07-29T16:27:17;30.63;35.96
68493;HTU21D;55483;51.106;5.984;2022-07-29T16:29:43;30.57;36.31
68493;HTU21D;55483;51.106;5.984;2022-07-29T16:32:11;30.41;37.04
68493;HTU21D;55483;51.106;5.984;2022-07-29T16:34:36;30.38;37.84
68493;HTU21D;55483;51.106;5.984;2022-07-29T16:37:02;30.32;37.79
68493;HTU21D;55483;51.106;5.984;2022-07-29T16:39:29;30.24;38.11
68493;HTU21D;55483;51.106;5.984;2022-07-29T16:41:54;30.20;37.82
68493;HTU21D;55483;51.106;5.984;2022-07-29T16:44:20;30.19;36.96
68493;HTU21D;55483;51.106;5.984;2022-07-29T16:46:47;30.21;36.65
68493;HTU21D;55483;51.106;5.984;2022-07-29T16:49:12;30.24;36.56
68493;HTU21D;55483;51.106;5.984;2022-07-29T16:51:46;30.30;36.62
68493;HTU21D;55483;51.106;5.984;2022-07-29T16:54:13;30.34;36.69
68493;HTU21D;55483;51.106;5.984;2022-07-29T16:56:38;30.38;36.14
68493;HTU21D;55483;51.106;5.984;2022-07-29T16:59:04;30.27;35.73
68493;HTU21D;55483;51.106;5.984;2022-07-29T17:01:30;30.16;35.72
68493;HTU21D;55483;51.106;5.984;2022-07-29T17:03:58;30.08;36.23
68493;HTU21D;55483;51.106;5.984;2022-07-29T17:06:34;29.96;36.07
68493;HTU21D;55483;51.106;5.984;2022-07-29T17:09:06;29.90;36.00
68493;HTU21D;55483;51.106;5.984;2022-07-29T17:11:33;29.85;36.34
68493;HTU21D;55483;51.106;5.984;2022-07-29T17:14:00;29.82;36.46
68493;HTU21D;55483;51.106;5.984;2022-07-29T17:16:27;29.75;36.73
68493;HTU21D;55483;51.106;5.984;2022-07-29T17:18:55;29.71;37.06
68493;HTU21D;55483;51.106;5.984;2022-07-29T17:21:22;29.65;37.02
68493;HTU21D;55483;51.106;5.984;2022-07-29T17:23:48;29.63;36.83
68493;HTU21D;55483;51.106;5.984;2022-07-29T17:26:17;29.56;36.66
68493;HTU21D;55483;51.106;5.984;2022-07-29T17:28:44;29.48;36.84
68493;HTU21D;55483;51.106;5.984;2022-07-29T17:31:10;29.44;36.98
68493;HTU21D;55483;51.106;5.984;2022-07-29T17:33:36;29.35;37.15
68493;HTU21D;55483;51.106;5.984;2022-07-29T17:36:02;29.29;37.40
68493;HTU21D;55483;51.106;5.984;2022-07-29T17:42:13;29.16;38.16
68493;HTU21D;55483;51.106;5.984;2022-07-29T17:44:41;29.08;37.86
68493;HTU21D;55483;51.106;5.984;2022-07-29T17:47:08;29.03;38.56
68493;HTU21D;55483;51.106;5.984;2022-07-29T17:49:34;28.95;38.50
68493;HTU21D;55483;51.106;5.984;2022-07-29T17:52:00;28.88;39.27
68493;HTU21D;55483;51.106;5.984;2022-07-29T17:54:26;28.80;39.17
68493;HTU21D;55483;51.106;5.984;2022-07-29T17:56:52;28.74;39.43
68493;HTU21D;55483;51.106;5.984;2022-07-29T17:59:17;28.67;40.03
68493;HTU21D;55483;51.106;5.984;2022-07-29T18:01:44;28.65;40.78
68493;HTU21D;55483;51.106;5.984;2022-07-29T18:04:10;28.65;40.85
68493;HTU21D;55483;51.106;5.984;2022-07-29T18:06:36;28.69;41.28
68493;HTU21D;55483;51.106;5.984;2022-07-29T18:09:02;28.73;41.29
68493;HTU21D;55483;51.106;5.984;2022-07-29T18:11:28;28.75;41.71
68493;HTU21D;55483;51.106;5.984;2022-07-29T18:13:56;28.76;41.94
68493;HTU21D;55483;51.106;5.984;2022-07-29T18:16:21;28.77;41.48
68493;HTU21D;55483;51.106;5.984;2022-07-29T18:18:47;28.69;40.82
68493;HTU21D;55483;51.106;5.984;2022-07-29T18:21:13;28.65;42.11
68493;HTU21D;55483;51.106;5.984;2022-07-29T18:23:41;28.61;41.46
68493;HTU21D;55483;51.106;5.984;2022-07-29T18:26:06;28.57;41.95
68493;HTU21D;55483;51.106;5.984;2022-07-29T18:28:32;28.58;42.20
68493;HTU21D;55483;51.106;5.984;2022-07-29T18:30:59;28.58;42.10
68493;HTU21D;55483;51.106;5.984;2022-07-29T18:33:27;28.58;42.24
68493;HTU21D;55483;51.106;5.984;2022-07-29T18:35:53;28.54;42.60
68493;HTU21D;55483;51.106;5.984;2022-07-29T18:38:19;28.47;42.67
68493;HTU21D;55483;51.106;5.984;2022-07-29T18:40:46;28.40;42.84
68493;HTU21D;55483;51.106;5.984;2022-07-29T18:43:12;28.29;43.06
68493;HTU21D;55483;51.106;5.984;2022-07-29T18:45:40;28.16;43.13
68493;HTU21D;55483;51.106;5.984;2022-07-29T18:48:05;28.03;43.46
68493;HTU21D;55483;51.106;5.984;2022-07-29T18:50:33;27.88;44.03
68493;HTU21D;55483;51.106;5.984;2022-07-29T18:53:00;27.72;44.59
68493;HTU21D;55483;51.106;5.984;2022-07-29T18:55:27;27.57;45.09
68493;HTU21D;55483;51.106;5.984;2022-07-29T18:57:53;27.42;45.13
68493;HTU21D;55483;51.106;5.984;2022-07-29T19:00:20;27.25;45.77
68493;HTU21D;55483;51.106;5.984;2022-07-29T19:02:48;27.07;45.96
68493;HTU21D;55483;51.106;5.984;2022-07-29T19:05:14;26.91;46.44
68493;HTU21D;55483;51.106;5.984;2022-07-29T19:07:41;26.78;46.86
68493;HTU21D;55483;51.106;5.984;2022-07-29T19:10:07;26.61;46.91
68493;HTU21D;55483;51.106;5.984;2022-07-29T19:12:33;26.47;47.44
68493;HTU21D;55483;51.106;5.984;2022-07-29T19:14:59;26.32;47.92
68493;HTU21D;55483;51.106;5.984;2022-07-29T19:17:26;26.20;48.18
68493;HTU21D;55483;51.106;5.984;2022-07-29T19:19:52;26.07;48.46
68493;HTU21D;55483;51.106;5.984;2022-07-29T19:22:21;25.95;49.18
68493;HTU21D;55483;51.106;5.984;2022-07-29T19:24:48;25.82;49.74
68493;HTU21D;55483;51.106;5.984;2022-07-29T19:27:15;25.68;50.05
68493;HTU21D;55483;51.106;5.984;2022-07-29T19:29:42;25.58;50.32
68493;HTU21D;55483;51.106;5.984;2022-07-29T19:32:10;25.47;50.37
